createdAt,value
2022-11-12T00:00:53.537Z,6.03
2022-11-12T00:03:20.738Z,6.33
2022-11-12T00:05:49.378Z,6.73
2022-11-12T00:08:16.507Z,6.40
2022-11-12T00:10:43.208Z,6.13
2022-11-12T00:13:09.894Z,6.33
2022-11-12T00:15:36.731Z,6.67
2022-11-12T00:18:03.641Z,6.03
2022-11-12T00:20:30.368Z,6.63
2022-11-12T00:22:57.030Z,6.90
2022-11-12T00:25:23.702Z,6.73
2022-11-12T00:27:50.347Z,6.57
2022-11-12T00:30:17.175Z,6.23
2022-11-12T00:32:43.860Z,6.80
2022-11-12T00:35:13.832Z,6.20
2022-11-12T00:37:40.995Z,6.60
2022-11-12T00:40:08.706Z,6.10
2022-11-12T00:42:35.560Z,6.60
2022-11-12T00:45:02.273Z,6.90
2022-11-12T00:47:28.982Z,6.50
2022-11-12T00:49:55.662Z,7.00
2022-11-12T00:52:22.551Z,6.60
2022-11-12T00:54:49.232Z,6.73
2022-11-12T00:57:15.895Z,6.70
2022-11-12T00:59:42.591Z,6.83
2022-11-12T01:02:10.416Z,6.23
2022-11-12T01:04:37.078Z,6.50
2022-11-12T01:07:03.798Z,6.63
2022-11-12T01:09:30.434Z,6.90
2022-11-12T01:11:57.108Z,7.33
2022-11-12T01:14:23.825Z,6.53
2022-11-12T01:16:50.494Z,7.43
2022-11-12T01:19:17.186Z,6.97
2022-11-12T01:21:44.762Z,6.97
2022-11-12T01:24:11.813Z,6.93
2022-11-12T01:26:38.962Z,6.90
2022-11-12T01:29:06.126Z,6.47
2022-11-12T01:31:36.113Z,6.77
2022-11-12T01:34:09.026Z,6.83
2022-11-12T01:36:39.981Z,6.60
2022-11-12T01:39:08.408Z,6.70
2022-11-12T01:41:37.903Z,6.40
2022-11-12T01:44:12.179Z,6.00
2022-11-12T01:46:50.238Z,6.20
2022-11-12T01:49:26.607Z,5.83
2022-11-12T01:51:56.977Z,6.13
2022-11-12T01:54:25.503Z,5.47
2022-11-12T01:56:52.517Z,6.17
2022-11-12T01:59:25.281Z,5.03
2022-11-12T02:01:52.055Z,6.17
2022-11-12T02:04:19.843Z,5.40
2022-11-12T02:06:48.006Z,5.40
2022-11-12T02:09:14.991Z,4.90
2022-11-12T02:11:41.706Z,5.13
2022-11-12T02:14:08.582Z,5.20
2022-11-12T02:16:41.139Z,5.03
2022-11-12T02:19:11.170Z,4.70
2022-11-12T02:21:37.878Z,4.77
2022-11-12T02:24:24.498Z,4.73
2022-11-12T02:26:54.455Z,4.67
2022-11-12T02:29:21.895Z,4.70
2022-11-12T02:31:48.571Z,4.77
2022-11-12T02:34:15.190Z,4.63
2022-11-12T02:36:41.873Z,4.27
2022-11-12T02:39:08.541Z,4.50
2022-11-12T02:41:35.165Z,4.70
2022-11-12T02:44:01.831Z,4.57
2022-11-12T02:46:28.495Z,4.77
2022-11-12T02:48:55.208Z,4.97
2022-11-12T02:51:21.844Z,5.40
2022-11-12T02:53:48.481Z,5.00
2022-11-12T02:56:15.279Z,4.80
2022-11-12T02:58:41.950Z,4.93
2022-11-12T03:01:08.727Z,5.17
2022-11-12T03:03:35.429Z,4.93
2022-11-12T03:06:02.356Z,5.00
2022-11-12T03:08:29.300Z,4.70
2022-11-12T03:10:56.126Z,4.63
2022-11-12T03:13:22.788Z,4.97
2022-11-12T03:15:49.477Z,5.27
2022-11-12T03:18:16.369Z,4.93
2022-11-12T03:20:43.107Z,5.00
2022-11-12T03:23:11.197Z,4.77
2022-11-12T03:25:38.650Z,4.80
2022-11-12T03:28:11.165Z,5.00
2022-11-12T03:30:39.820Z,5.37
2022-11-12T03:33:08.031Z,4.87
2022-11-12T03:35:35.793Z,5.30
2022-11-12T03:38:03.046Z,5.27
2022-11-12T03:40:30.580Z,5.63
2022-11-12T03:42:57.335Z,5.80
2022-11-12T03:45:26.639Z,5.27
2022-11-12T03:47:55.934Z,5.07
2022-11-12T03:50:25.276Z,5.23
2022-11-12T03:52:54.792Z,5.20
2022-11-12T03:55:22.961Z,4.67
2022-11-12T03:57:50.816Z,4.63
2022-11-12T04:00:18.504Z,5.10
2022-11-12T04:02:45.454Z,5.37
2022-11-12T04:05:31.091Z,5.10
2022-11-12T04:08:30.859Z,4.80
2022-11-12T04:10:57.577Z,4.80
2022-11-12T04:13:30.239Z,5.10
2022-11-12T04:16:26.343Z,4.70
2022-11-12T04:19:14.387Z,5.30
2022-11-12T04:21:55.379Z,4.93
2022-11-12T04:24:42.042Z,5.07
2022-11-12T04:27:11.128Z,4.70
2022-11-12T04:29:56.521Z,4.87
2022-11-12T04:32:23.281Z,5.07
2022-11-12T04:34:50.058Z,5.07
2022-11-12T04:37:22.385Z,5.50
2022-11-12T04:39:50.605Z,5.10
2022-11-12T04:42:35.948Z,5.43
2022-11-12T04:45:04.981Z,4.97
2022-11-12T04:47:37.546Z,5.20
2022-11-12T04:50:08.011Z,5.00
2022-11-12T04:52:34.683Z,5.50
2022-11-12T04:55:01.457Z,5.03
2022-11-12T04:57:28.199Z,4.87
2022-11-12T04:59:54.973Z,4.80
2022-11-12T05:02:21.957Z,5.33
2022-11-12T05:04:48.913Z,4.93
2022-11-12T05:07:16.606Z,4.63
2022-11-12T05:09:43.750Z,5.03
2022-11-12T05:12:10.482Z,4.77
2022-11-12T05:14:37.163Z,4.60
2022-11-12T05:17:04.034Z,4.80
2022-11-12T05:19:30.931Z,4.40
2022-11-12T05:22:06.577Z,4.93
2022-11-12T05:24:42.706Z,4.30
2022-11-12T05:27:14.754Z,4.77
2022-11-12T05:29:41.870Z,5.00
2022-11-12T05:32:10.623Z,4.37
2022-11-12T05:34:37.382Z,4.83
2022-11-12T05:37:05.909Z,5.17
2022-11-12T05:39:32.572Z,4.70
2022-11-12T05:42:12.857Z,4.80
2022-11-12T05:44:40.644Z,4.80
2022-11-12T05:47:07.467Z,4.90
2022-11-12T05:49:34.130Z,4.80
2022-11-12T05:52:00.783Z,4.67
2022-11-12T05:54:27.533Z,5.23
2022-11-12T05:56:54.377Z,5.00
2022-11-12T05:59:22.139Z,5.00
2022-11-12T06:01:48.867Z,4.30
2022-11-12T06:04:16.459Z,4.60
2022-11-12T06:06:44.067Z,4.50
2022-11-12T06:09:11.020Z,4.73
2022-11-12T06:11:38.574Z,5.33
2022-11-12T06:14:05.548Z,5.03
2022-11-12T06:16:32.907Z,4.80
2022-11-12T06:18:59.768Z,4.43
2022-11-12T06:21:27.746Z,4.80
2022-11-12T06:23:59.236Z,4.47
2022-11-12T06:26:28.293Z,4.67
2022-11-12T06:28:55.426Z,4.70
2022-11-12T06:31:23.041Z,4.70
2022-11-12T06:33:50.091Z,4.87
2022-11-12T06:36:19.301Z,4.50
2022-11-12T06:38:46.440Z,5.23
2022-11-12T06:41:13.964Z,4.30
2022-11-12T06:43:41.586Z,4.80
2022-11-12T06:46:14.093Z,5.07
2022-11-12T06:48:41.417Z,4.80
2022-11-12T06:51:17.200Z,5.43
2022-11-12T06:53:44.172Z,5.00
2022-11-12T06:56:11.377Z,4.93
2022-11-12T06:58:38.474Z,5.03
2022-11-12T07:01:11.599Z,5.13
2022-11-12T07:03:40.113Z,5.20
2022-11-12T07:06:09.513Z,5.30
2022-11-12T07:08:37.182Z,4.77
2022-11-12T07:11:04.892Z,4.97
2022-11-12T07:13:33.605Z,4.90
2022-11-12T07:16:01.131Z,5.10
2022-11-12T07:18:28.891Z,5.20
2022-11-12T07:21:00.558Z,5.13
2022-11-12T07:23:28.090Z,5.43
2022-11-12T07:26:03.274Z,5.37
2022-11-12T07:28:30.551Z,4.97
2022-11-12T07:31:02.753Z,5.40
2022-11-12T07:33:30.729Z,5.37
2022-11-12T07:36:02.672Z,4.87
2022-11-12T07:38:30.602Z,4.73
2022-11-12T07:41:01.336Z,5.33
2022-11-12T07:43:29.608Z,5.67
2022-11-12T07:46:10.755Z,5.03
2022-11-12T07:48:38.770Z,6.00
2022-11-12T07:51:08.319Z,4.90
2022-11-12T07:53:34.986Z,5.17
2022-11-12T07:56:04.559Z,5.57
2022-11-12T07:58:33.038Z,5.37
2022-11-12T08:01:27.313Z,4.90
2022-11-12T08:03:54.067Z,5.40
2022-11-12T08:06:21.516Z,4.93
2022-11-12T08:08:48.339Z,5.37
2022-11-12T08:11:14.989Z,5.67
2022-11-12T08:13:41.653Z,5.50
2022-11-12T08:16:08.384Z,5.50
2022-11-12T08:18:35.105Z,6.00
2022-11-12T08:21:07.583Z,5.57
2022-11-12T08:23:35.231Z,5.57
2022-11-12T08:26:04.380Z,5.60
2022-11-12T08:28:32.770Z,5.60
2022-11-12T08:31:10.716Z,5.60
2022-11-12T08:33:38.210Z,5.73
2022-11-12T08:36:06.529Z,5.90
2022-11-12T08:38:33.300Z,5.40
2022-11-12T08:41:11.047Z,6.47
2022-11-12T08:43:39.106Z,5.83
2022-11-12T08:46:06.044Z,6.03
2022-11-12T08:48:34.449Z,5.40
2022-11-12T08:51:02.609Z,5.93
2022-11-12T08:53:29.345Z,6.50
2022-11-12T08:55:57.358Z,6.23
2022-11-12T08:58:25.352Z,6.20
2022-11-12T09:00:53.175Z,5.87
2022-11-12T09:03:22.238Z,6.33
2022-11-12T09:05:49.842Z,6.57
2022-11-12T09:08:19.924Z,5.70
2022-11-12T09:10:46.763Z,6.17
2022-11-12T09:13:18.366Z,5.80
2022-11-12T09:15:45.977Z,5.93
2022-11-12T09:18:17.340Z,5.43
2022-11-12T09:20:44.168Z,6.60
2022-11-12T09:23:13.319Z,6.70
2022-11-12T09:25:41.463Z,6.50
2022-11-12T09:28:16.346Z,6.67
2022-11-12T09:30:48.664Z,6.63
2022-11-12T09:33:18.700Z,6.93
2022-11-12T09:35:46.325Z,7.07
2022-11-12T09:38:15.150Z,7.10
2022-11-12T09:40:56.812Z,7.30
2022-11-12T09:43:54.288Z,7.27
2022-11-12T09:46:28.860Z,6.77
2022-11-12T09:49:28.459Z,7.07
2022-11-12T09:52:04.470Z,7.90
2022-11-12T09:54:33.121Z,7.10
2022-11-12T09:56:59.799Z,7.60
2022-11-12T09:59:30.213Z,6.90
2022-11-12T10:02:31.113Z,7.70
2022-11-12T10:05:26.631Z,7.60
2022-11-12T10:08:01.023Z,6.53
2022-11-12T10:10:47.063Z,7.43
2022-11-12T10:13:34.836Z,7.17
2022-11-12T10:16:58.295Z,7.40
2022-11-12T10:19:58.607Z,7.00
2022-11-12T10:22:53.815Z,6.77
2022-11-12T10:25:20.962Z,7.70
2022-11-12T10:27:49.238Z,7.90
2022-11-12T10:30:21.859Z,7.33
2022-11-12T10:32:50.368Z,7.07
2022-11-12T10:35:20.713Z,6.97
2022-11-12T10:38:06.462Z,7.40
2022-11-12T10:40:41.284Z,6.63
2022-11-12T10:43:16.964Z,6.87
2022-11-12T10:45:45.278Z,7.33
2022-11-12T10:48:32.988Z,7.57
2022-11-12T10:51:00.788Z,7.13
2022-11-12T10:53:34.644Z,7.03
2022-11-12T10:56:04.137Z,7.10
2022-11-12T10:58:31.141Z,7.50
2022-11-12T11:01:07.320Z,6.70
2022-11-12T11:03:36.218Z,7.20
2022-11-12T11:06:07.722Z,6.90
2022-11-12T11:08:40.415Z,7.13
2022-11-12T11:11:29.863Z,7.90
2022-11-12T11:14:08.483Z,7.53
2022-11-12T11:16:54.439Z,6.93
2022-11-12T11:19:21.116Z,7.57
2022-11-12T11:21:50.904Z,7.43
2022-11-12T11:24:17.546Z,7.50
2022-11-12T11:27:05.722Z,7.67
2022-11-12T11:29:44.453Z,8.27
2022-11-12T11:32:26.060Z,7.97
2022-11-12T11:35:20.522Z,7.43
2022-11-12T11:38:25.692Z,7.30
2022-11-12T11:41:04.518Z,7.23
2022-11-12T11:43:34.009Z,7.27
2022-11-12T11:46:19.975Z,7.60
2022-11-12T11:49:07.516Z,7.40
2022-11-12T11:51:46.386Z,7.97
2022-11-12T11:54:44.846Z,8.03
2022-11-12T11:57:16.700Z,7.07
2022-11-12T12:00:01.356Z,7.60
2022-11-12T12:02:52.248Z,7.23
2022-11-12T12:05:29.078Z,7.47
2022-11-12T12:08:03.435Z,7.07
2022-11-12T12:11:07.430Z,7.83
2022-11-12T12:13:43.928Z,8.13
2022-11-12T12:16:13.444Z,7.37
2022-11-12T12:18:55.986Z,8.20
2022-11-12T12:21:26.439Z,8.33
2022-11-12T12:24:10.435Z,8.37
2022-11-12T12:26:44.118Z,8.30
2022-11-12T12:29:37.184Z,8.47
2022-11-12T12:32:40.865Z,7.90
2022-11-12T12:35:23.834Z,9.20
2022-11-12T12:38:04.394Z,7.70
2022-11-12T12:40:52.650Z,9.10
2022-11-12T12:43:29.026Z,9.73
2022-11-12T12:45:58.069Z,9.07
2022-11-12T12:48:26.770Z,9.47
2022-11-12T12:50:54.038Z,9.73
2022-11-12T12:53:29.887Z,7.80
2022-11-12T12:55:59.160Z,8.37
2022-11-12T12:58:40.827Z,8.80
2022-11-12T13:01:32.680Z,9.43
2022-11-12T13:04:08.590Z,8.37
2022-11-12T13:06:37.827Z,10.13
2022-11-12T13:09:12.179Z,9.43
2022-11-12T13:12:00.493Z,9.40
2022-11-12T13:14:36.256Z,10.40
2022-11-12T13:17:07.074Z,10.17
2022-11-12T13:19:36.572Z,10.67
2022-11-12T13:22:18.538Z,11.20
2022-11-12T13:25:09.791Z,9.57
2022-11-12T13:27:39.595Z,9.70
2022-11-12T13:30:18.243Z,9.90
2022-11-12T13:32:48.019Z,9.80
2022-11-12T13:35:23.231Z,10.23
2022-11-12T13:38:08.015Z,9.50
2022-11-12T13:40:55.583Z,9.60
2022-11-12T13:43:25.667Z,9.60
2022-11-12T13:46:11.025Z,9.40
2022-11-12T13:48:47.890Z,10.00
2022-11-12T13:51:29.393Z,9.43
2022-11-12T13:53:56.086Z,10.37
2022-11-12T13:56:34.483Z,10.07
2022-11-12T13:59:15.470Z,9.50
2022-11-12T14:01:43.185Z,10.33
2022-11-12T14:04:23.837Z,9.57
2022-11-12T14:06:54.003Z,10.70
2022-11-12T14:09:32.877Z,12.03
2022-11-12T14:12:09.090Z,10.73
2022-11-12T14:15:12.599Z,10.63
2022-11-12T14:18:07.730Z,10.63
2022-11-12T14:20:39.664Z,10.77
2022-11-12T14:23:14.184Z,11.30
2022-11-12T14:25:48.217Z,10.00
2022-11-12T14:28:34.701Z,9.93
2022-11-12T14:31:04.012Z,11.23
2022-11-12T14:33:32.247Z,11.13
2022-11-12T14:36:25.411Z,12.10
2022-11-12T14:38:58.178Z,11.63
2022-11-12T14:41:31.061Z,10.83
2022-11-12T14:44:13.236Z,10.63
2022-11-12T14:46:53.971Z,12.17
2022-11-12T14:49:44.497Z,11.23
2022-11-12T14:52:26.845Z,11.47
2022-11-12T14:54:57.726Z,11.73
2022-11-12T14:57:27.820Z,11.40
2022-11-12T14:59:55.709Z,11.57
2022-11-12T15:02:48.895Z,11.33
2022-11-12T15:05:21.297Z,11.33
2022-11-12T15:07:56.069Z,10.63
2022-11-12T15:10:35.066Z,10.13
2022-11-12T15:13:23.498Z,10.80
2022-11-12T15:16:00.970Z,10.50
2022-11-12T15:18:30.370Z,11.10
2022-11-12T15:21:12.032Z,10.60
2022-11-12T15:23:56.668Z,9.50
2022-11-12T15:26:38.551Z,9.70
2022-11-12T15:29:10.960Z,10.67
2022-11-12T15:31:58.437Z,9.97
2022-11-12T15:34:41.684Z,8.67
2022-11-12T15:37:19.782Z,9.43
2022-11-12T15:39:52.371Z,9.83
2022-11-12T15:42:30.623Z,9.47
2022-11-12T15:45:00.499Z,8.77
2022-11-12T15:47:27.812Z,9.10
2022-11-12T15:49:56.854Z,9.60
2022-11-12T15:52:23.540Z,9.30
2022-11-12T15:54:50.389Z,8.90
2022-11-12T15:57:21.067Z,9.67
2022-11-12T16:00:23.912Z,9.60
2022-11-12T16:03:15.079Z,9.13
2022-11-12T16:05:42.826Z,9.30
2022-11-12T16:08:10.275Z,9.03
2022-11-12T16:10:39.520Z,8.83
2022-11-12T16:13:08.065Z,9.17
2022-11-12T16:15:34.853Z,9.00
2022-11-12T16:18:01.530Z,9.87
2022-11-12T16:20:31.950Z,9.23
2022-11-12T16:22:58.939Z,9.40
2022-11-12T16:25:29.803Z,9.83
2022-11-12T16:27:57.883Z,10.50
2022-11-12T16:30:40.846Z,10.37
2022-11-12T16:33:11.283Z,10.27
2022-11-12T16:35:38.085Z,10.33
2022-11-12T16:38:14.818Z,10.10
2022-11-12T16:40:41.983Z,9.37
2022-11-12T16:43:08.671Z,9.87
2022-11-12T16:45:39.375Z,11.27
2022-11-12T16:48:21.318Z,9.50
2022-11-12T16:50:48.744Z,9.47
2022-11-12T16:53:15.377Z,10.17
2022-11-12T16:55:42.451Z,11.23
2022-11-12T16:58:13.879Z,10.30
2022-11-12T17:00:44.197Z,10.03
2022-11-12T17:03:14.133Z,11.13
2022-11-12T17:05:40.869Z,11.27
2022-11-12T17:08:09.455Z,10.20
2022-11-12T17:10:36.312Z,9.77
2022-11-12T17:13:02.992Z,10.80
2022-11-12T17:15:29.704Z,10.73
2022-11-12T17:17:56.448Z,11.43
2022-11-12T17:20:23.204Z,11.43
2022-11-12T17:22:49.866Z,12.00
2022-11-12T17:25:16.737Z,11.83
2022-11-12T17:27:43.427Z,11.63
2022-11-12T17:30:11.856Z,11.20
2022-11-12T17:32:38.533Z,11.43
2022-11-12T17:35:05.704Z,11.63
2022-11-12T17:37:32.367Z,11.67
2022-11-12T17:39:59.019Z,13.53
2022-11-12T17:42:25.714Z,18.70
2022-11-12T17:44:52.406Z,20.87
2022-11-12T17:47:19.036Z,19.73
2022-11-12T17:49:45.656Z,18.77
2022-11-12T17:52:12.375Z,19.47
2022-11-12T17:54:39.079Z,19.53
2022-11-12T17:57:05.755Z,18.07
2022-11-12T17:59:32.427Z,21.00
2022-11-12T18:01:59.170Z,21.73
2022-11-12T18:04:29.887Z,21.50
2022-11-12T18:06:57.636Z,20.50
2022-11-12T18:09:24.297Z,19.23
2022-11-12T18:11:56.458Z,22.60
2022-11-12T18:14:23.252Z,22.00
2022-11-12T18:16:49.990Z,19.17
2022-11-12T18:19:16.704Z,19.73
2022-11-12T18:21:43.371Z,17.00
2022-11-12T18:24:15.264Z,18.23
2022-11-12T18:26:42.916Z,22.03
2022-11-12T18:29:09.639Z,17.50
2022-11-12T18:31:36.306Z,22.90
2022-11-12T18:34:03.100Z,20.70
2022-11-12T18:36:29.800Z,20.80
2022-11-12T18:38:56.747Z,21.17
2022-11-12T18:41:26.808Z,19.90
2022-11-12T18:43:54.079Z,18.80
2022-11-12T18:46:22.929Z,18.03
2022-11-12T18:48:50.042Z,17.17
2022-11-12T18:51:18.294Z,20.03
2022-11-12T18:53:46.099Z,18.93
2022-11-12T18:56:15.179Z,19.27
2022-11-12T18:58:42.226Z,19.77
2022-11-12T19:01:21.357Z,21.30
2022-11-12T19:03:52.873Z,21.57
2022-11-12T19:06:21.517Z,22.30
2022-11-12T19:08:48.394Z,20.40
2022-11-12T19:11:18.598Z,18.70
2022-11-12T19:16:30.731Z,19.53
2022-11-12T19:18:57.447Z,19.10
2022-11-12T19:21:26.038Z,18.13
2022-11-12T19:23:55.085Z,17.83
2022-11-12T19:26:23.590Z,17.97
2022-11-12T19:28:50.584Z,18.07
2022-11-12T19:31:20.147Z,18.13
2022-11-12T19:33:47.504Z,18.43
2022-11-12T19:36:20.636Z,19.03
2022-11-12T19:38:47.477Z,20.80
2022-11-12T19:41:19.872Z,18.87
2022-11-12T19:43:47.190Z,19.53
2022-11-12T19:46:14.770Z,19.80
2022-11-12T19:48:41.708Z,19.73
2022-11-12T19:51:09.944Z,19.60
2022-11-12T19:53:40.858Z,20.37
2022-11-12T19:56:08.093Z,19.10
2022-11-12T19:58:34.900Z,18.60
2022-11-12T20:01:10.495Z,19.27
2022-11-12T20:03:38.139Z,19.90
2022-11-12T20:06:10.250Z,18.53
2022-11-12T20:08:37.851Z,18.37
2022-11-12T20:11:05.104Z,17.93
2022-11-12T20:13:32.046Z,17.90
2022-11-12T20:15:59.300Z,18.03
2022-11-12T20:18:26.947Z,18.27
2022-11-12T20:20:56.556Z,17.90
2022-11-12T20:23:24.255Z,17.13
2022-11-12T20:25:52.331Z,17.57
2022-11-12T20:28:19.130Z,18.90
2022-11-12T20:30:46.070Z,20.30
2022-11-12T20:33:13.477Z,19.67
2022-11-12T20:35:40.184Z,19.47
2022-11-12T20:38:06.852Z,21.67
2022-11-12T20:40:33.514Z,21.27
2022-11-12T20:43:00.254Z,21.03
2022-11-12T20:45:27.323Z,21.60
2022-11-12T20:47:56.080Z,21.13
2022-11-12T20:50:23.212Z,20.27
2022-11-12T20:52:49.989Z,21.60
2022-11-12T20:55:17.051Z,21.17
2022-11-12T20:57:43.811Z,21.10
2022-11-12T21:00:13.941Z,20.77
2022-11-12T21:02:41.869Z,19.67
2022-11-12T21:05:08.631Z,18.93
2022-11-12T21:07:35.412Z,18.27
2022-11-12T21:10:02.404Z,18.40
2022-11-12T21:12:30.911Z,17.63
2022-11-12T21:14:57.608Z,16.53
2022-11-12T21:17:24.260Z,15.13
2022-11-12T21:19:50.927Z,15.07
2022-11-12T21:22:17.720Z,15.30
2022-11-12T21:24:44.356Z,15.80
2022-11-12T21:27:12.099Z,15.60
2022-11-12T21:29:38.845Z,15.87
2022-11-12T21:32:05.984Z,16.47
2022-11-12T21:34:32.715Z,17.40
2022-11-12T21:37:00.641Z,18.83
2022-11-12T21:39:27.343Z,19.73
2022-11-12T21:41:54.849Z,18.20
2022-11-12T21:44:21.545Z,18.80
2022-11-12T21:46:48.387Z,18.60
2022-11-12T21:49:14.999Z,19.00
2022-11-12T21:51:41.684Z,18.97
2022-11-12T21:54:09.003Z,17.77
2022-11-12T21:56:37.618Z,18.17
2022-11-12T21:59:04.503Z,18.20
2022-11-12T22:01:34.331Z,18.27
2022-11-12T22:04:01.143Z,16.53
2022-11-12T22:06:29.670Z,16.80
2022-11-12T22:08:58.204Z,17.23
2022-11-12T22:11:27.653Z,16.80
2022-11-12T22:13:54.657Z,16.87
2022-11-12T22:16:23.635Z,16.13
2022-11-12T22:18:52.927Z,17.13
2022-11-12T22:21:24.906Z,16.73
2022-11-12T22:23:52.036Z,16.33
2022-11-12T22:26:21.891Z,17.10
2022-11-12T22:28:48.790Z,16.67
2022-11-12T22:31:21.153Z,17.30
2022-11-12T22:33:48.586Z,16.80
2022-11-12T22:36:18.430Z,16.13
2022-11-12T22:38:46.685Z,17.60
2022-11-12T22:41:25.428Z,16.57
2022-11-12T22:44:02.141Z,16.50
2022-11-12T22:46:31.560Z,16.33
2022-11-12T22:48:59.086Z,16.23
2022-11-12T22:51:28.104Z,16.63
2022-11-12T22:54:00.200Z,16.20
2022-11-12T22:56:27.860Z,15.93
2022-11-12T22:58:55.354Z,15.73
2022-11-12T23:01:25.067Z,16.80
2022-11-12T23:03:56.929Z,15.37
2022-11-12T23:06:24.785Z,16.23
2022-11-12T23:08:53.166Z,15.37
2022-11-12T23:11:20.758Z,15.33
2022-11-12T23:13:48.581Z,16.13
2022-11-12T23:16:17.752Z,15.33
2022-11-12T23:18:45.098Z,16.07
2022-11-12T23:21:18.086Z,15.20
2022-11-12T23:23:44.811Z,15.93
2022-11-12T23:26:19.768Z,15.93
2022-11-12T23:28:46.616Z,15.70
2022-11-12T23:31:16.490Z,15.53
2022-11-12T23:33:48.413Z,15.07
2022-11-12T23:36:15.780Z,15.07
2022-11-12T23:38:42.837Z,16.50
2022-11-12T23:41:18.461Z,15.73
2022-11-12T23:43:45.290Z,15.90
2022-11-12T23:46:12.370Z,16.00
2022-11-12T23:48:39.072Z,15.47
2022-11-12T23:51:09.861Z,15.00
2022-11-12T23:53:38.075Z,14.00
2022-11-12T23:56:06.901Z,14.80
2022-11-12T23:58:33.789Z,14.60
